Bella Vista, Arkansas
Current Conditions -  °F | °C
As of 10:35 AM on Sunday 21 Dec 2014 (Local Time) from KVBT Reporting Station
Overcast Overcast  
Wind Chill: 38°   Ceiling: 900
Heat Index: 43°   Visibility: 8mi
Dew Point: 37°   Wind: 8mph
Humidity: 81%   Direction: 180°S
Pressure: 30.08"   Gusts: NA
Location:  36.48°N, 94.25°W
Report Text: KVBT 211635Z AUTO 18007KT 8SM OVC009 06/03 A3008 RMK AO1
Loading
Personal Weather Stations






























Interactive Weather Map New forecast layout! Learn more

10-Day Weather Forecast

Advertisements
Track Severe Weather on mobile